createdAt,value
2022-08-26T00:02:20.505Z,13.91
2022-08-26T00:04:49.870Z,14.40
2022-08-26T00:07:19.411Z,14.32
2022-08-26T00:09:48.713Z,13.73
2022-08-26T00:12:19.357Z,13.89
2022-08-26T00:15:02.245Z,13.99
2022-08-26T00:17:31.516Z,14.44
2022-08-26T00:20:00.825Z,13.96
2022-08-26T00:22:30.137Z,14.61
2022-08-26T00:24:59.383Z,14.53
2022-08-26T00:27:28.548Z,14.55
2022-08-26T00:29:57.792Z,14.63
2022-08-26T00:32:28.629Z,14.75
2022-08-26T00:34:57.907Z,14.65
2022-08-26T00:37:36.505Z,14.52
2022-08-26T00:40:07.311Z,14.78
2022-08-26T00:42:36.525Z,14.78
2022-08-26T00:45:11.585Z,14.33
2022-08-26T00:47:47.755Z,15.29
2022-08-26T00:50:20.382Z,14.58
2022-08-26T00:52:50.895Z,14.46
2022-08-26T00:55:23.164Z,14.75
2022-08-26T00:57:53.419Z,14.53
2022-08-26T01:00:26.665Z,15.23
2022-08-26T01:02:58.026Z,14.66
2022-08-26T01:05:27.387Z,15.10
2022-08-26T01:07:56.718Z,14.66
2022-08-26T01:10:30.185Z,15.03
2022-08-26T01:13:02.894Z,15.17
2022-08-26T01:15:36.656Z,14.64
2022-08-26T01:18:09.369Z,14.78
2022-08-26T01:20:47.320Z,14.77
2022-08-26T01:23:18.789Z,15.12
2022-08-26T01:25:56.832Z,14.86
2022-08-26T01:28:30.943Z,15.30
2022-08-26T01:31:01.526Z,15.36
2022-08-26T01:33:42.109Z,14.82
2022-08-26T01:36:13.159Z,14.97
2022-08-26T01:38:44.838Z,15.06
2022-08-26T01:41:19.702Z,15.39
2022-08-26T01:43:56.342Z,14.86
2022-08-26T01:46:29.767Z,15.36
2022-08-26T01:49:03.237Z,14.80
2022-08-26T01:51:38.628Z,15.53
2022-08-26T01:54:12.101Z,15.33
2022-08-26T01:56:43.548Z,15.26
2022-08-26T01:59:16.265Z,15.88
2022-08-26T02:01:46.569Z,15.60
2022-08-26T02:04:21.396Z,15.64
2022-08-26T02:06:51.185Z,15.86
2022-08-26T02:09:22.750Z,15.71
2022-08-26T02:11:54.887Z,15.91
2022-08-26T02:14:26.880Z,16.24
2022-08-26T02:16:56.624Z,16.47
2022-08-26T02:19:31.247Z,16.52
2022-08-26T02:22:03.603Z,16.42
2022-08-26T02:24:49.496Z,16.45
2022-08-26T02:27:21.101Z,16.47
2022-08-26T02:29:54.587Z,16.43
2022-08-26T02:32:23.761Z,16.43
2022-08-26T02:34:53.903Z,16.33
2022-08-26T02:37:23.232Z,16.08
2022-08-26T02:39:53.956Z,16.24
2022-08-26T02:42:23.227Z,16.16
2022-08-26T02:44:52.514Z,16.11
2022-08-26T02:47:21.782Z,16.12
2022-08-26T02:49:54.114Z,16.19
2022-08-26T02:52:23.468Z,16.26
2022-08-26T02:54:54.353Z,16.37
2022-08-26T02:57:24.504Z,16.55
2022-08-26T02:59:53.674Z,16.78
2022-08-26T03:02:23.627Z,16.88
2022-08-26T03:04:57.770Z,16.81
2022-08-26T03:07:31.371Z,16.98
2022-08-26T03:10:08.148Z,16.91
2022-08-26T03:12:38.125Z,16.81
2022-08-26T03:15:17.437Z,16.67
2022-08-26T03:17:52.072Z,16.48
2022-08-26T03:20:21.372Z,16.68
2022-08-26T03:22:51.897Z,16.49
2022-08-26T03:25:23.522Z,16.56
2022-08-26T03:27:53.110Z,16.77
2022-08-26T03:30:44.855Z,16.85
2022-08-26T03:33:16.239Z,16.97
2022-08-26T03:35:50.571Z,16.92
2022-08-26T03:38:21.072Z,17.03
2022-08-26T03:40:52.767Z,16.90
2022-08-26T03:43:22.809Z,16.81
2022-08-26T03:45:53.174Z,17.02
2022-08-26T03:48:23.431Z,17.01
2022-08-26T03:50:52.710Z,17.10
2022-08-26T03:53:22.561Z,16.99
2022-08-26T03:55:53.305Z,17.65
2022-08-26T03:58:24.606Z,17.28
2022-08-26T04:00:55.361Z,17.77
2022-08-26T04:03:38.884Z,17.97
2022-08-26T04:06:09.591Z,18.01
2022-08-26T04:08:38.976Z,18.28
2022-08-26T04:11:09.813Z,18.36
2022-08-26T04:13:39.386Z,18.58
2022-08-26T04:16:09.366Z,18.78
2022-08-26T04:18:42.093Z,18.90
2022-08-26T04:21:16.526Z,18.97
2022-08-26T04:23:47.679Z,19.02
2022-08-26T04:26:20.127Z,19.24
2022-08-26T04:28:50.327Z,19.41
2022-08-26T04:31:20.794Z,19.55
2022-08-26T04:33:51.492Z,19.52
2022-08-26T04:36:20.820Z,19.45
2022-08-26T04:38:51.482Z,19.36
2022-08-26T04:41:22.675Z,19.39
2022-08-26T04:43:52.072Z,19.40
2022-08-26T04:46:24.968Z,19.38
2022-08-26T04:48:56.546Z,19.61
2022-08-26T04:51:28.326Z,19.61
2022-08-26T04:53:58.110Z,19.71
2022-08-26T04:56:30.730Z,19.72
2022-08-26T04:59:01.007Z,19.73
2022-08-26T05:01:31.763Z,19.69
2022-08-26T05:04:02.058Z,19.64
2022-08-26T05:06:36.825Z,19.70
2022-08-26T05:09:06.814Z,19.89
2022-08-26T05:11:38.798Z,20.04
2022-08-26T05:14:08.408Z,20.27
2022-08-26T05:16:40.427Z,20.30
2022-08-26T05:19:10.180Z,20.35
2022-08-26T05:21:40.233Z,20.33
2022-08-26T05:24:09.442Z,20.48
2022-08-26T05:26:41.085Z,20.66
2022-08-26T05:29:10.273Z,20.91
2022-08-26T05:31:40.431Z,20.90
2022-08-26T05:34:11.229Z,20.90
2022-08-26T05:36:40.648Z,20.93
2022-08-26T05:39:10.813Z,21.11
2022-08-26T05:41:44.892Z,21.32
2022-08-26T05:44:16.606Z,21.70
2022-08-26T05:46:45.887Z,21.90
2022-08-26T05:49:16.384Z,21.93
2022-08-26T05:51:47.760Z,21.82
2022-08-26T05:54:21.803Z,21.72
2022-08-26T05:56:53.285Z,21.45
2022-08-26T05:59:25.403Z,21.32
2022-08-26T06:01:56.381Z,21.21
2022-08-26T06:04:28.565Z,21.19
2022-08-26T06:06:58.651Z,21.55
2022-08-26T06:09:28.446Z,21.92
2022-08-26T06:12:02.270Z,22.42
2022-08-26T06:14:31.502Z,22.73
2022-08-26T06:17:01.272Z,22.57
2022-08-26T06:19:32.825Z,22.17
2022-08-26T06:22:23.483Z,21.89
2022-08-26T06:25:18.485Z,21.48
2022-08-26T06:27:50.034Z,21.35
2022-08-26T06:30:19.733Z,20.79
2022-08-26T06:32:55.277Z,21.29
2022-08-26T06:35:24.502Z,21.37
2022-08-26T06:37:53.659Z,21.53
2022-08-26T06:40:23.082Z,21.87
2022-08-26T06:42:53.927Z,22.06
2022-08-26T06:45:23.016Z,22.07
2022-08-26T06:47:53.301Z,22.10
2022-08-26T06:50:23.658Z,22.18
2022-08-26T06:52:54.746Z,22.45
2022-08-26T06:55:27.058Z,22.64
2022-08-26T06:57:58.846Z,22.41
2022-08-26T07:00:28.644Z,22.05
2022-08-26T07:02:57.809Z,21.75
2022-08-26T07:05:27.417Z,21.59
2022-08-26T07:07:58.471Z,21.47
2022-08-26T07:10:28.163Z,21.45
2022-08-26T07:12:58.908Z,21.46
2022-08-26T07:15:31.357Z,21.47
2022-08-26T07:18:00.568Z,21.54
2022-08-26T07:20:30.204Z,21.71
2022-08-26T07:23:00.016Z,21.75
2022-08-26T07:25:31.198Z,21.62
2022-08-26T07:28:01.962Z,21.86
2022-08-26T07:30:32.422Z,21.47
2022-08-26T07:33:01.786Z,21.54
2022-08-26T07:35:31.634Z,22.04
2022-08-26T07:38:02.163Z,22.08
2022-08-26T07:40:31.555Z,22.48
2022-08-26T07:43:02.387Z,22.63
2022-08-26T07:45:31.907Z,23.15
2022-08-26T07:48:01.734Z,23.11
2022-08-26T07:50:49.425Z,23.36
2022-08-26T07:53:20.666Z,23.76
2022-08-26T07:55:50.323Z,23.96
2022-08-26T07:58:21.757Z,24.06
2022-08-26T08:00:51.314Z,24.00
2022-08-26T08:03:23.601Z,23.43
2022-08-26T08:05:52.806Z,23.40
2022-08-26T08:08:27.601Z,23.24
2022-08-26T08:10:58.949Z,22.89
2022-08-26T08:13:30.811Z,23.12
2022-08-26T08:16:01.067Z,23.03
2022-08-26T08:18:30.418Z,22.59
2022-08-26T08:21:21.177Z,22.76
2022-08-26T08:23:53.273Z,22.82
2022-08-26T08:26:22.729Z,23.28
2022-08-26T08:28:55.530Z,23.17
2022-08-26T08:31:55.895Z,23.30
2022-08-26T08:34:15.843Z,23.70
2022-08-26T08:36:48.005Z,23.53
2022-08-26T08:39:17.200Z,23.66
2022-08-26T08:42:06.945Z,24.04
2022-08-26T08:44:42.461Z,24.54
2022-08-26T08:47:19.885Z,24.74
2022-08-26T08:49:51.442Z,24.72
2022-08-26T08:52:29.372Z,24.70
2022-08-26T08:54:58.960Z,24.71
2022-08-26T08:57:40.178Z,24.53
2022-08-26T09:00:18.686Z,23.79
2022-08-26T09:02:55.649Z,23.74
2022-08-26T09:05:26.937Z,23.86
2022-08-26T09:08:01.495Z,24.55
2022-08-26T09:10:37.901Z,25.26
2022-08-26T09:13:13.696Z,25.30
2022-08-26T09:15:54.972Z,25.17
2022-08-26T09:18:49.807Z,25.56
2022-08-26T09:21:20.111Z,26.54
2022-08-26T09:23:51.347Z,26.83
2022-08-26T09:26:27.171Z,27.03
2022-08-26T09:29:01.010Z,27.46
2022-08-26T09:31:35.334Z,27.08
2022-08-26T09:34:17.992Z,26.70
2022-08-26T09:36:50.846Z,25.92
2022-08-26T09:39:37.643Z,25.22
2022-08-26T09:42:10.724Z,25.20
2022-08-26T09:44:58.324Z,24.95
2022-08-26T09:47:32.158Z,25.18
2022-08-26T09:50:12.441Z,25.42
2022-08-26T09:52:42.649Z,25.02
2022-08-26T09:55:16.711Z,25.02
2022-08-26T09:57:51.847Z,24.39
2022-08-26T10:00:31.408Z,24.21
2022-08-26T10:03:04.318Z,23.40
2022-08-26T10:05:41.085Z,23.41
2022-08-26T10:08:24.302Z,23.15
2022-08-26T10:10:55.782Z,23.28
2022-08-26T10:13:31.771Z,23.51
2022-08-26T10:16:13.611Z,23.38
2022-08-26T10:18:49.374Z,23.17
2022-08-26T10:21:26.643Z,23.14
2022-08-26T10:23:59.695Z,22.99
2022-08-26T10:26:40.831Z,22.92
2022-08-26T10:29:15.506Z,23.16
2022-08-26T10:31:51.432Z,22.99
2022-08-26T10:34:22.683Z,22.59
2022-08-26T10:37:15.779Z,22.70
2022-08-26T10:39:53.030Z,22.93
2022-08-26T10:42:35.627Z,23.02
2022-08-26T10:45:15.071Z,22.44
2022-08-26T10:47:52.065Z,22.46
2022-08-26T10:50:26.771Z,22.69
2022-08-26T10:53:03.986Z,22.38
2022-08-26T10:55:40.819Z,22.72
2022-08-26T10:58:27.558Z,22.72
2022-08-26T11:01:23.127Z,22.61
2022-08-26T11:04:00.849Z,22.83
2022-08-26T11:06:33.306Z,23.54
2022-08-26T11:09:07.786Z,23.77
2022-08-26T11:11:54.682Z,23.86
2022-08-26T11:14:46.168Z,23.55
2022-08-26T11:18:00.125Z,23.93
2022-08-26T11:20:36.425Z,24.02
2022-08-26T11:23:50.465Z,24.01
2022-08-26T11:26:36.347Z,24.31
2022-08-26T11:29:13.856Z,24.45
2022-08-26T11:32:00.520Z,24.43
2022-08-26T11:34:53.601Z,24.69
2022-08-26T11:37:28.227Z,24.77
2022-08-26T11:40:02.858Z,25.00
2022-08-26T11:42:38.664Z,24.53
2022-08-26T11:45:20.183Z,24.58
2022-08-26T11:47:49.664Z,24.66
2022-08-26T11:50:23.826Z,24.31
2022-08-26T11:52:56.439Z,24.48
2022-08-26T11:55:28.160Z,24.02
2022-08-26T11:58:08.354Z,24.50
2022-08-26T12:01:01.881Z,24.05
2022-08-26T12:03:54.360Z,23.53
2022-08-26T12:06:30.488Z,23.71
2022-08-26T12:09:02.017Z,23.44
2022-08-26T12:11:35.548Z,23.07
2022-08-26T12:14:10.060Z,23.38
2022-08-26T12:16:41.840Z,23.80
2022-08-26T12:19:25.300Z,23.83
2022-08-26T12:22:00.837Z,24.18
2022-08-26T12:24:31.335Z,24.07
2022-08-26T12:27:18.881Z,24.00
2022-08-26T12:30:09.395Z,23.59
2022-08-26T12:32:57.616Z,23.71
2022-08-26T12:35:29.609Z,23.15
2022-08-26T12:37:59.583Z,23.49
2022-08-26T12:40:41.374Z,24.42
2022-08-26T12:43:16.406Z,24.09
2022-08-26T12:45:57.227Z,24.13
2022-08-26T12:48:29.416Z,23.71
2022-08-26T12:51:06.987Z,23.95
2022-08-26T12:53:43.550Z,23.39
2022-08-26T12:56:39.408Z,24.07
2022-08-26T12:59:23.592Z,23.60
2022-08-26T13:01:54.396Z,24.00
2022-08-26T13:04:39.048Z,23.36
2022-08-26T13:07:17.033Z,22.81
2022-08-26T13:09:46.270Z,22.21
2022-08-26T13:12:26.123Z,21.68
2022-08-26T13:15:00.827Z,21.44
2022-08-26T13:17:31.176Z,21.06
2022-08-26T13:20:04.146Z,20.40
2022-08-26T13:22:34.022Z,20.56
2022-08-26T13:25:03.373Z,20.10
2022-08-26T13:27:33.141Z,20.01
2022-08-26T13:30:04.328Z,19.89
2022-08-26T13:32:33.756Z,19.59
2022-08-26T13:35:03.935Z,19.55
2022-08-26T13:37:35.697Z,19.31
2022-08-26T13:40:06.868Z,19.11
2022-08-26T13:42:36.179Z,19.07
2022-08-26T13:45:07.827Z,18.74
2022-08-26T13:47:38.230Z,18.78
2022-08-26T13:50:08.386Z,18.43
2022-08-26T13:52:37.800Z,18.23
2022-08-26T13:55:08.472Z,17.95
2022-08-26T13:57:37.820Z,18.31
2022-08-26T14:00:11.241Z,17.49
2022-08-26T14:02:40.553Z,18.11
2022-08-26T14:05:10.943Z,17.81
2022-08-26T14:07:40.104Z,17.80
2022-08-26T14:10:10.066Z,17.73
2022-08-26T14:12:42.626Z,17.66
2022-08-26T14:15:16.787Z,17.57
2022-08-26T14:17:47.060Z,17.60
2022-08-26T14:20:18.838Z,17.53
2022-08-26T14:23:12.693Z,17.39
2022-08-26T14:25:37.163Z,17.31
2022-08-26T14:28:06.792Z,17.29
2022-08-26T14:30:38.862Z,17.23
2022-08-26T14:33:08.289Z,17.15
2022-08-26T14:35:37.590Z,17.06
2022-08-26T14:38:06.770Z,16.97
2022-08-26T14:40:37.552Z,16.90
2022-08-26T14:43:10.066Z,16.82
2022-08-26T14:45:44.108Z,16.76
2022-08-26T14:48:13.781Z,16.68
2022-08-26T14:50:42.945Z,16.61
2022-08-26T14:53:29.110Z,16.50
2022-08-26T14:55:58.437Z,16.45
2022-08-26T14:58:33.783Z,16.14
2022-08-26T15:01:07.248Z,16.27
2022-08-26T15:03:36.390Z,16.24
2022-08-26T15:06:05.958Z,16.14
2022-08-26T15:08:37.068Z,16.13
2022-08-26T15:11:06.524Z,15.98
2022-08-26T15:13:36.075Z,15.98
2022-08-26T15:16:07.258Z,15.38
2022-08-26T15:18:36.504Z,15.94
2022-08-26T15:21:07.662Z,15.65
2022-08-26T15:23:36.907Z,15.75
2022-08-26T15:26:09.239Z,15.81
2022-08-26T15:28:39.297Z,15.76
2022-08-26T15:31:10.136Z,15.72
2022-08-26T15:33:40.858Z,15.68
2022-08-26T15:36:11.641Z,15.19
2022-08-26T15:38:43.075Z,15.41
2022-08-26T15:41:14.707Z,14.77
2022-08-26T15:43:43.845Z,15.16
2022-08-26T15:46:15.052Z,15.42
2022-08-26T15:48:44.907Z,15.37
2022-08-26T15:51:23.712Z,15.02
2022-08-26T15:53:55.867Z,15.09
2022-08-26T15:56:26.586Z,14.90
2022-08-26T15:58:56.678Z,14.70
2022-08-26T16:01:28.304Z,15.08
2022-08-26T16:03:58.254Z,15.01
2022-08-26T16:06:30.831Z,14.94
2022-08-26T16:09:00.168Z,14.93
2022-08-26T16:11:29.649Z,14.86
2022-08-26T16:13:58.883Z,14.86
2022-08-26T16:16:31.333Z,14.80
2022-08-26T16:19:04.251Z,14.72
2022-08-26T16:21:36.938Z,14.80
2022-08-26T16:24:07.362Z,14.32
2022-08-26T16:26:38.654Z,14.25
2022-08-26T16:29:12.757Z,14.21
2022-08-26T16:31:43.456Z,14.64
2022-08-26T16:34:13.070Z,14.59
2022-08-26T16:36:42.443Z,14.21
2022-08-26T16:39:13.523Z,14.36
2022-08-26T16:41:42.774Z,14.07
2022-08-26T16:44:12.437Z,14.36
2022-08-26T16:50:47.763Z,13.21
2022-08-26T16:53:58.618Z,14.19
2022-08-26T16:56:34.409Z,13.78
2022-08-26T16:59:06.823Z,13.89
2022-08-26T17:01:36.236Z,13.61
2022-08-26T17:04:07.204Z,13.55
2022-08-26T17:06:36.498Z,13.70
2022-08-26T17:09:06.100Z,13.24
2022-08-26T17:11:35.881Z,13.30
2022-08-26T17:14:05.142Z,13.60
2022-08-26T17:16:34.403Z,13.62
2022-08-26T17:19:04.998Z,13.02
2022-08-26T17:21:37.922Z,13.11
2022-08-26T17:24:08.209Z,13.44
2022-08-26T17:26:38.186Z,13.46
2022-08-26T17:29:08.805Z,13.07
2022-08-26T17:31:37.982Z,13.46
2022-08-26T17:34:07.768Z,13.42
2022-08-26T17:36:38.469Z,13.07
2022-08-26T17:39:07.603Z,12.96
2022-08-26T17:41:36.747Z,13.28
2022-08-26T17:44:06.996Z,12.94
2022-08-26T17:46:38.477Z,12.83
2022-08-26T17:49:08.185Z,13.14
2022-08-26T17:51:38.849Z,12.99
2022-08-26T17:54:07.997Z,12.64
2022-08-26T17:56:37.135Z,12.98
2022-08-26T17:59:06.420Z,12.79
2022-08-26T18:01:36.707Z,12.90
2022-08-26T18:04:06.488Z,12.46
2022-08-26T18:06:35.797Z,12.82
2022-08-26T18:09:06.750Z,12.53
2022-08-26T18:11:36.014Z,12.75
2022-08-26T18:14:05.567Z,12.44
2022-08-26T18:16:38.730Z,12.25
2022-08-26T18:19:08.506Z,12.73
2022-08-26T18:21:38.100Z,12.62
2022-08-26T18:24:13.825Z,12.06
2022-08-26T18:26:49.237Z,12.64
2022-08-26T18:29:20.173Z,12.15
2022-08-26T18:31:50.265Z,12.28
2022-08-26T18:34:20.229Z,12.54
2022-08-26T18:36:49.681Z,12.13
2022-08-26T18:39:23.451Z,12.13
2022-08-26T18:41:54.285Z,12.49
2022-08-26T18:44:24.949Z,12.11
2022-08-26T18:46:54.430Z,12.46
2022-08-26T18:49:23.957Z,12.00
2022-08-26T18:51:53.420Z,12.39
2022-08-26T18:54:24.284Z,11.81
2022-08-26T18:56:53.586Z,12.08
2022-08-26T18:59:29.482Z,12.34
2022-08-26T19:01:59.913Z,11.67
2022-08-26T19:04:29.360Z,12.11
2022-08-26T19:06:58.614Z,11.75
2022-08-26T19:09:29.307Z,11.51
2022-08-26T19:11:58.512Z,12.24
2022-08-26T19:14:27.907Z,11.65
2022-08-26T19:16:57.165Z,11.75
2022-08-26T19:19:26.537Z,12.22
2022-08-26T19:21:55.737Z,12.21
2022-08-26T19:24:27.482Z,11.94
2022-08-26T19:27:01.646Z,12.17
2022-08-26T19:29:33.255Z,11.69
2022-08-26T19:32:03.502Z,11.79
2022-08-26T19:34:32.998Z,11.84
2022-08-26T19:37:02.931Z,12.32
2022-08-26T19:39:32.252Z,12.04
2022-08-26T19:42:02.959Z,12.11
2022-08-26T19:44:48.922Z,12.09
2022-08-26T19:47:18.106Z,11.88
2022-08-26T19:49:47.538Z,12.45
2022-08-26T19:52:16.700Z,12.52
2022-08-26T19:54:46.229Z,12.64
2022-08-26T19:57:17.382Z,12.66
2022-08-26T19:59:46.950Z,12.28
2022-08-26T20:02:17.031Z,12.66
2022-08-26T20:04:46.259Z,12.67
2022-08-26T20:07:18.940Z,12.46
2022-08-26T20:09:49.416Z,12.66
2022-08-26T20:12:20.932Z,12.09
2022-08-26T20:14:50.064Z,12.00
2022-08-26T20:17:19.244Z,11.84
2022-08-26T20:20:05.828Z,12.55
2022-08-26T20:22:43.972Z,11.82
2022-08-26T20:25:13.581Z,12.51
2022-08-26T20:27:44.238Z,12.31
2022-08-26T20:30:14.502Z,11.98
2022-08-26T20:32:44.462Z,11.96
2022-08-26T20:35:15.875Z,12.18
2022-08-26T20:37:45.191Z,11.79
2022-08-26T20:40:16.299Z,11.77
2022-08-26T20:42:47.062Z,11.96
2022-08-26T20:45:16.323Z,11.97
2022-08-26T20:47:45.499Z,11.73
2022-08-26T20:50:14.737Z,11.90
2022-08-26T20:52:43.958Z,11.81
2022-08-26T20:55:13.449Z,11.71
2022-08-26T20:57:43.835Z,11.98
2022-08-26T21:00:18.520Z,12.00
2022-08-26T21:02:51.194Z,11.84
2022-08-26T21:05:21.143Z,11.27
2022-08-26T21:07:51.847Z,11.59
2022-08-26T21:10:22.021Z,11.47
2022-08-26T21:12:52.750Z,11.57
2022-08-26T21:15:23.453Z,11.81
2022-08-26T21:17:52.643Z,11.35
2022-08-26T21:20:21.884Z,11.73
2022-08-26T21:22:51.026Z,11.21
2022-08-26T21:25:20.988Z,11.54
2022-08-26T21:27:50.167Z,11.60
2022-08-26T21:30:19.401Z,11.58
2022-08-26T21:32:50.131Z,11.57
2022-08-26T21:35:19.797Z,11.12
2022-08-26T21:37:48.948Z,11.26
2022-08-26T21:40:18.389Z,11.64
2022-08-26T21:42:48.026Z,11.67
2022-08-26T21:45:18.732Z,11.18
2022-08-26T21:47:49.513Z,11.71
2022-08-26T21:50:18.801Z,11.75
2022-08-26T21:52:47.953Z,11.00
2022-08-26T21:55:17.193Z,11.01
2022-08-26T21:57:46.358Z,11.32
2022-08-26T22:00:17.348Z,11.49
2022-08-26T22:02:46.530Z,11.66
2022-08-26T22:05:17.358Z,11.07
2022-08-26T22:07:46.652Z,11.46
2022-08-26T22:10:15.933Z,11.74
2022-08-26T22:12:45.035Z,11.49
2022-08-26T22:15:14.904Z,12.06
2022-08-26T22:17:44.079Z,11.69
2022-08-26T22:20:16.557Z,11.86
2022-08-26T22:22:47.512Z,11.59
2022-08-26T22:25:16.692Z,11.65
2022-08-26T22:27:45.896Z,11.84
2022-08-26T22:30:15.642Z,12.14
2022-08-26T22:32:46.111Z,11.74
2022-08-26T22:35:28.716Z,12.04
2022-08-26T22:38:00.813Z,11.75
2022-08-26T22:40:30.158Z,11.60
2022-08-26T22:43:00.453Z,11.70
2022-08-26T22:45:31.781Z,11.63
2022-08-26T22:48:02.071Z,12.01
2022-08-26T22:50:31.212Z,11.98
2022-08-26T22:53:01.802Z,11.51
2022-08-26T22:55:31.116Z,11.40
2022-08-26T22:58:00.558Z,11.89
2022-08-26T23:00:32.018Z,11.93
2022-08-26T23:03:01.855Z,12.02
2022-08-26T23:05:31.535Z,12.08
2022-08-26T23:08:02.247Z,11.29
2022-08-26T23:10:31.412Z,11.70
2022-08-26T23:13:01.105Z,11.77
2022-08-26T23:15:30.320Z,11.70
2022-08-26T23:17:59.674Z,11.83
2022-08-26T23:20:30.565Z,12.28
2022-08-26T23:23:01.830Z,12.17
2022-08-26T23:25:32.805Z,11.94
2022-08-26T23:28:03.122Z,12.39
2022-08-26T23:30:34.296Z,12.10
2022-08-26T23:33:03.459Z,12.53
2022-08-26T23:35:31.616Z,12.59
2022-08-26T23:38:03.972Z,12.54
2022-08-26T23:40:36.644Z,12.72
2022-08-26T23:43:08.440Z,12.49
2022-08-26T23:45:38.065Z,12.82
2022-08-26T23:48:07.712Z,12.75
2022-08-26T23:50:56.117Z,12.57
2022-08-26T23:53:26.886Z,12.76
2022-08-26T23:55:56.228Z,12.95
2022-08-26T23:58:25.543Z,12.83
